Shekhupura, Pakistan
Current Conditions -  °F | °C
As of 9:25 AM on Sunday 26 Oct 2014 (Local Time) from OPLA Reporting Station
Smoke Smoke  
Wind Chill: 75°   Ceiling: Unl
Heat Index: 75°   Visibility: 1.5mi
Dew Point: 63°   Wind: 3mph
Humidity: 65%   Direction: 60°ENE
Pressure: NA   Gusts: NA
Location:  31.72°N, 73.98°E
Report Text: OPLA 260425Z 06003KT 2500 FU NSC 24/17 Q1018/A30.06
Loading
Personal Weather Stations






























Interactive Weather Map New forecast layout! Learn more

10-Day Weather Forecast

Advertisements
Track Severe Weather on mobile